createdAt,value
2017-07-07T00:00:12.603Z,1004.56
2017-07-07T00:01:12.575Z,1004.55
2017-07-07T00:02:12.556Z,1004.5
2017-07-07T00:03:12.536Z,1004.47
2017-07-07T00:04:12.518Z,1004.47
2017-07-07T00:05:12.500Z,1004.45
2017-07-07T00:06:12.480Z,1004.44
2017-07-07T00:07:12.463Z,1004.43
2017-07-07T00:08:12.444Z,1004.38
2017-07-07T00:09:12.427Z,1004.37
2017-07-07T00:10:12.503Z,1004.35
2017-07-07T00:11:12.386Z,1004.31
2017-07-07T00:12:12.369Z,1004.28
2017-07-07T00:13:12.348Z,1004.25
2017-07-07T00:14:12.330Z,1004.21
2017-07-07T00:15:12.311Z,1004.22
2017-07-07T00:16:12.294Z,1004.21
2017-07-07T00:17:12.273Z,1004.2
2017-07-07T00:18:12.254Z,1004.23
2017-07-07T00:19:12.236Z,1004.17
2017-07-07T00:20:12.217Z,1004.14
2017-07-07T00:21:12.198Z,1004.1
2017-07-07T00:22:12.179Z,1003.97
2017-07-07T00:23:12.160Z,1003.97
2017-07-07T00:24:12.142Z,1003.95
2017-07-07T00:25:12.124Z,1003.94
2017-07-07T00:26:12.104Z,1003.95
2017-07-07T00:27:12.086Z,1003.92
2017-07-07T00:28:12.066Z,1003.95
2017-07-07T00:29:12.047Z,1003.92
2017-07-07T00:30:12.029Z,1003.93
2017-07-07T00:31:12.010Z,1003.92
2017-07-07T00:32:11.990Z,1003.96
2017-07-07T00:33:11.973Z,1003.96
2017-07-07T00:34:11.953Z,1003.96
2017-07-07T00:35:11.934Z,1003.98
2017-07-07T00:36:11.915Z,1003.96
2017-07-07T00:37:11.899Z,1003.89
2017-07-07T00:38:11.878Z,1003.9
2017-07-07T00:39:11.861Z,1003.9
2017-07-07T00:40:11.840Z,1003.93
2017-07-07T00:41:11.821Z,1003.96
2017-07-07T00:42:11.802Z,1003.95
2017-07-07T00:43:11.782Z,1003.95
2017-07-07T00:44:11.764Z,1003.94
2017-07-07T00:45:11.745Z,1003.91
2017-07-07T00:46:11.725Z,1003.85
2017-07-07T00:47:11.707Z,1003.87
2017-07-07T00:48:11.688Z,1003.9
2017-07-07T00:49:11.670Z,1003.91
2017-07-07T00:50:11.649Z,1003.87
2017-07-07T00:51:11.632Z,1003.9
2017-07-07T00:52:11.612Z,1003.85
2017-07-07T00:53:11.593Z,1003.84
2017-07-07T00:54:11.575Z,1003.84
2017-07-07T00:55:11.556Z,1003.82
2017-07-07T00:56:11.537Z,1003.78
2017-07-07T00:57:11.519Z,1003.77
2017-07-07T00:58:11.500Z,1003.73
2017-07-07T00:59:11.481Z,1003.74
2017-07-07T01:00:11.461Z,1003.67
2017-07-07T01:01:11.443Z,1003.7
2017-07-07T01:02:11.422Z,1003.65
2017-07-07T01:03:11.404Z,1003.67
2017-07-07T01:04:11.384Z,1003.67
2017-07-07T01:05:11.366Z,1003.64
2017-07-07T01:06:11.347Z,1003.62
2017-07-07T01:07:11.328Z,1003.59
2017-07-07T01:08:11.307Z,1003.59
2017-07-07T01:09:11.289Z,1003.57
2017-07-07T01:10:11.272Z,1003.58
2017-07-07T01:11:11.251Z,1003.54
2017-07-07T01:12:11.231Z,1003.52
2017-07-07T01:13:11.213Z,1003.52
2017-07-07T01:14:11.195Z,1003.51
2017-07-07T01:15:11.175Z,1003.53
2017-07-07T01:16:11.155Z,1003.54
2017-07-07T01:17:11.140Z,1003.45
2017-07-07T01:18:11.117Z,1003.5
2017-07-07T01:19:11.097Z,1003.55
2017-07-07T01:20:11.078Z,1003.53
2017-07-07T01:21:11.060Z,1003.51
2017-07-07T01:22:11.041Z,1003.48
2017-07-07T01:23:11.020Z,1003.48
2017-07-07T01:24:11.001Z,1003.48
2017-07-07T01:25:10.984Z,1003.49
2017-07-07T01:26:10.963Z,1003.53
2017-07-07T01:27:10.943Z,1003.59
2017-07-07T01:28:10.925Z,1003.56
2017-07-07T01:29:10.906Z,1003.6
2017-07-07T01:30:10.887Z,1003.59
2017-07-07T01:31:10.867Z,1003.54
2017-07-07T01:32:10.847Z,1003.55
2017-07-07T01:33:10.829Z,1003.53
2017-07-07T01:34:10.810Z,1003.5
2017-07-07T01:35:10.790Z,1003.49
2017-07-07T01:36:10.772Z,1003.45
2017-07-07T01:37:10.751Z,1003.44
2017-07-07T01:38:10.732Z,1003.47
2017-07-07T01:39:10.713Z,1003.49
2017-07-07T01:40:10.695Z,1003.46
2017-07-07T01:41:10.674Z,1003.47
2017-07-07T01:42:10.655Z,1003.42
2017-07-07T01:43:10.636Z,1003.41
2017-07-07T01:44:10.618Z,1003.36
2017-07-07T01:45:10.596Z,1003.35
2017-07-07T01:46:10.577Z,1003.28
2017-07-07T01:47:10.559Z,1003.25
2017-07-07T01:48:10.538Z,1003.22
2017-07-07T01:49:10.519Z,1003.19
2017-07-07T01:50:10.501Z,1003.19
2017-07-07T01:51:10.482Z,1003.21
2017-07-07T01:52:10.461Z,1003.22
2017-07-07T01:53:10.443Z,1003.19
2017-07-07T01:54:10.424Z,1003.21
2017-07-07T01:55:10.406Z,1003.18
2017-07-07T01:56:10.385Z,1003.1
2017-07-07T01:57:10.365Z,1003.07
2017-07-07T01:58:10.348Z,1003.03
2017-07-07T01:59:10.327Z,1002.99
2017-07-07T02:00:10.359Z,1002.96
2017-07-07T02:01:10.290Z,1002.94
2017-07-07T02:02:10.270Z,1002.94
2017-07-07T02:03:10.250Z,1002.96
2017-07-07T02:04:10.231Z,1002.93
2017-07-07T02:05:10.212Z,1002.96
2017-07-07T02:06:10.197Z,1002.96
2017-07-07T02:07:10.172Z,1002.9
2017-07-07T02:08:10.154Z,1002.88
2017-07-07T02:09:10.134Z,1002.85
2017-07-07T02:10:10.114Z,1002.83
2017-07-07T02:11:10.096Z,1002.78
2017-07-07T02:12:10.076Z,1002.78
2017-07-07T02:13:10.057Z,1002.75
2017-07-07T02:14:10.037Z,1002.68
2017-07-07T02:15:10.018Z,1002.71
2017-07-07T02:16:10.003Z,1002.65
2017-07-07T02:17:09.980Z,1002.68
2017-07-07T02:18:09.960Z,1002.73
2017-07-07T02:19:09.940Z,1002.79
2017-07-07T02:20:09.921Z,1002.75
2017-07-07T02:21:09.901Z,1002.73
2017-07-07T02:22:09.882Z,1002.73
2017-07-07T02:23:09.887Z,1002.69
2017-07-07T02:24:09.843Z,1002.66
2017-07-07T02:25:09.823Z,1002.67
2017-07-07T02:26:09.805Z,1002.71
2017-07-07T02:27:09.785Z,1002.76
2017-07-07T02:28:09.765Z,1002.77
2017-07-07T02:29:09.746Z,1002.8
2017-07-07T02:30:09.727Z,1002.81
2017-07-07T02:31:09.708Z,1002.88
2017-07-07T02:32:09.688Z,1002.89
2017-07-07T02:33:09.723Z,1002.89
2017-07-07T02:34:09.649Z,1002.91
2017-07-07T02:35:09.631Z,1002.96
2017-07-07T02:36:09.610Z,1003.02
2017-07-07T02:37:09.590Z,1003.05
2017-07-07T02:38:09.571Z,1003.09
2017-07-07T02:39:09.551Z,1003.13
2017-07-07T02:40:09.532Z,1003.17
2017-07-07T02:41:09.514Z,1003.24
2017-07-07T02:42:09.494Z,1003.26
2017-07-07T02:43:09.473Z,1003.2
2017-07-07T02:44:09.454Z,1003.21
2017-07-07T02:45:09.436Z,1003.16
2017-07-07T02:46:09.415Z,1003.13
2017-07-07T02:47:09.396Z,1003.06
2017-07-07T02:48:09.376Z,1002.96
2017-07-07T02:49:09.358Z,1002.9
2017-07-07T02:50:09.337Z,1002.91
2017-07-07T02:51:09.318Z,1002.9
2017-07-07T02:52:09.298Z,1002.91
2017-07-07T02:53:09.279Z,1002.89
2017-07-07T02:54:09.259Z,1002.95
2017-07-07T02:55:09.240Z,1002.94
2017-07-07T02:56:09.220Z,1002.95
2017-07-07T02:57:09.201Z,1003.01
2017-07-07T02:58:09.182Z,1003.08
2017-07-07T02:59:09.161Z,1003.18
2017-07-07T03:00:09.143Z,1003.19
2017-07-07T03:01:09.123Z,1003.24
2017-07-07T03:02:09.104Z,1003.34
2017-07-07T03:03:09.085Z,1003.42
2017-07-07T03:04:09.065Z,1003.5
2017-07-07T03:05:09.046Z,1003.53
2017-07-07T03:06:09.027Z,1003.54
2017-07-07T03:07:09.007Z,1003.43
2017-07-07T03:08:08.988Z,1003.43
2017-07-07T03:09:08.968Z,1003.41
2017-07-07T03:10:08.947Z,1003.41
2017-07-07T03:11:08.928Z,1003.4
2017-07-07T03:12:08.909Z,1003.53
2017-07-07T03:13:08.889Z,1003.6
2017-07-07T03:14:08.871Z,1003.66
2017-07-07T03:15:08.850Z,1003.68
2017-07-07T03:16:08.830Z,1003.65
2017-07-07T03:17:08.810Z,1003.55
2017-07-07T03:18:08.791Z,1003.54
2017-07-07T03:19:08.772Z,1003.56
2017-07-07T03:20:08.752Z,1003.53
2017-07-07T03:21:08.733Z,1003.47
2017-07-07T03:22:08.712Z,1003.53
2017-07-07T03:23:08.692Z,1003.56
2017-07-07T03:24:08.672Z,1003.63
2017-07-07T03:25:08.654Z,1003.61
2017-07-07T03:26:08.634Z,1003.58
2017-07-07T03:27:08.614Z,1003.59
2017-07-07T03:28:08.594Z,1003.63
2017-07-07T03:29:08.576Z,1003.68
2017-07-07T03:30:08.556Z,1003.69
2017-07-07T03:31:08.537Z,1003.77
2017-07-07T03:32:08.517Z,1003.73
2017-07-07T03:33:08.497Z,1003.82
2017-07-07T03:34:08.477Z,1003.75
2017-07-07T03:35:08.458Z,1003.74
2017-07-07T03:36:08.438Z,1003.71
2017-07-07T03:37:08.418Z,1003.7
2017-07-07T03:38:08.399Z,1003.62
2017-07-07T03:39:08.380Z,1003.65
2017-07-07T03:40:08.359Z,1003.68
2017-07-07T03:41:08.340Z,1003.71
2017-07-07T03:42:08.320Z,1003.75
2017-07-07T03:43:08.300Z,1003.8
2017-07-07T03:44:08.280Z,1003.91
2017-07-07T03:45:08.260Z,1003.91
2017-07-07T03:46:08.240Z,1003.88
2017-07-07T03:47:08.221Z,1003.98
2017-07-07T03:48:08.203Z,1004.2
2017-07-07T03:49:08.182Z,1004.3
2017-07-07T03:50:08.163Z,1004.33
2017-07-07T03:51:08.144Z,1004.41
2017-07-07T03:52:08.124Z,1004.33
2017-07-07T03:53:08.104Z,1004.25
2017-07-07T03:54:08.086Z,1004.24
2017-07-07T03:55:08.066Z,1004.15
2017-07-07T03:56:08.046Z,1004.09
2017-07-07T03:57:08.026Z,1004.05
2017-07-07T03:58:08.008Z,1004
2017-07-07T03:59:07.988Z,1003.99
2017-07-07T04:00:07.967Z,1003.96
2017-07-07T04:01:07.948Z,1003.97
2017-07-07T04:02:07.929Z,1003.86
2017-07-07T04:03:07.910Z,1003.89
2017-07-07T04:04:07.891Z,1003.84
2017-07-07T04:05:07.871Z,1003.84
2017-07-07T04:06:07.853Z,1003.82
2017-07-07T04:07:07.833Z,1003.86
2017-07-07T04:08:07.814Z,1003.89
2017-07-07T04:09:07.795Z,1003.92
2017-07-07T04:10:07.777Z,1003.92
2017-07-07T04:11:07.755Z,1003.97
2017-07-07T04:12:07.736Z,1003.98
2017-07-07T04:13:07.718Z,1003.9
2017-07-07T04:14:07.699Z,1003.88
2017-07-07T04:15:07.680Z,1003.82
2017-07-07T04:16:07.661Z,1003.81
2017-07-07T04:17:07.641Z,1003.79
2017-07-07T04:18:07.622Z,1003.74
2017-07-07T04:19:07.603Z,1003.73
2017-07-07T04:20:07.584Z,1003.72
2017-07-07T04:21:07.566Z,1003.73
2017-07-07T04:22:07.545Z,1003.68
2017-07-07T04:23:07.526Z,1003.63
2017-07-07T04:24:07.509Z,1003.66
2017-07-07T04:25:07.488Z,1003.62
2017-07-07T04:26:07.469Z,1003.55
2017-07-07T04:27:07.450Z,1003.52
2017-07-07T04:28:07.432Z,1003.51
2017-07-07T04:29:07.412Z,1003.43
2017-07-07T04:30:07.396Z,1003.4
2017-07-07T04:31:07.375Z,1003.42
2017-07-07T04:32:07.356Z,1003.38
2017-07-07T04:33:07.339Z,1003.37
2017-07-07T04:34:07.320Z,1003.4
2017-07-07T04:35:07.302Z,1003.41
2017-07-07T04:36:07.281Z,1003.41
2017-07-07T04:37:07.262Z,1003.45
2017-07-07T04:38:07.245Z,1003.49
2017-07-07T04:39:07.226Z,1003.5
2017-07-07T04:40:07.208Z,1003.5
2017-07-07T04:41:07.189Z,1003.5
2017-07-07T04:42:07.172Z,1003.47
2017-07-07T04:43:07.152Z,1003.44
2017-07-07T04:44:07.134Z,1003.42
2017-07-07T04:45:07.116Z,1003.39
2017-07-07T04:46:07.098Z,1003.37
2017-07-07T04:47:07.082Z,1003.29
2017-07-07T04:48:07.061Z,1003.33
2017-07-07T04:49:07.044Z,1003.31
2017-07-07T04:50:07.025Z,1003.28
2017-07-07T04:51:07.007Z,1003.25
2017-07-07T04:52:06.989Z,1003.26
2017-07-07T04:53:06.971Z,1003.21
2017-07-07T04:54:06.954Z,1003.18
2017-07-07T04:55:06.934Z,1003.15
2017-07-07T04:56:06.917Z,1003.14
2017-07-07T04:57:06.900Z,1003.11
2017-07-07T04:58:06.880Z,1003.12
2017-07-07T04:59:06.863Z,1003.06
2017-07-07T05:00:06.846Z,1003.07
2017-07-07T05:01:06.828Z,1003.09
2017-07-07T05:02:06.809Z,1003.11
2017-07-07T05:03:06.792Z,1003.11
2017-07-07T05:04:06.774Z,1003.12
2017-07-07T05:05:06.758Z,1003.11
2017-07-07T05:06:06.738Z,1003.05
2017-07-07T05:07:06.720Z,1003.03
2017-07-07T05:08:06.703Z,1003.06
2017-07-07T05:09:06.684Z,1003.07
2017-07-07T05:10:06.764Z,1003.05
2017-07-07T05:11:06.649Z,1003.09
2017-07-07T05:12:06.631Z,1003.06
2017-07-07T05:13:06.613Z,1003.05
2017-07-07T05:14:06.596Z,1003.01
2017-07-07T05:15:06.578Z,1003.01
2017-07-07T05:16:06.561Z,1002.99
2017-07-07T05:17:06.543Z,1002.96
2017-07-07T05:18:06.525Z,1003
2017-07-07T05:19:06.508Z,1003.03
2017-07-07T05:20:06.490Z,1003
2017-07-07T05:21:06.473Z,1002.99
2017-07-07T05:22:06.457Z,1003.04
2017-07-07T05:23:06.438Z,1003.06
2017-07-07T05:24:06.420Z,1003.05
2017-07-07T05:25:06.403Z,1003.04
2017-07-07T05:26:06.386Z,1003.07
2017-07-07T05:27:06.370Z,1003.06
2017-07-07T05:28:06.353Z,1003.03
2017-07-07T05:29:06.335Z,1003.06
2017-07-07T05:30:06.318Z,1003.01
2017-07-07T05:31:06.301Z,1003.01
2017-07-07T05:32:06.284Z,1003.01
2017-07-07T05:33:06.267Z,1003.01
2017-07-07T05:34:06.249Z,1002.99
2017-07-07T05:35:06.233Z,1003
2017-07-07T05:36:06.215Z,1002.94
2017-07-07T05:37:06.198Z,1002.94
2017-07-07T05:38:06.182Z,1002.92
2017-07-07T05:39:06.165Z,1002.89
2017-07-07T05:40:06.149Z,1002.85
2017-07-07T05:41:06.132Z,1002.88
2017-07-07T05:42:06.115Z,1002.83
2017-07-07T05:43:06.102Z,1002.82
2017-07-07T05:44:06.083Z,1002.86
2017-07-07T05:45:06.067Z,1002.84
2017-07-07T05:46:06.050Z,1002.8
2017-07-07T05:47:06.034Z,1002.76
2017-07-07T05:48:06.018Z,1002.77
2017-07-07T05:49:06.001Z,1002.75
2017-07-07T05:50:05.986Z,1002.74
2017-07-07T05:51:05.970Z,1002.76
2017-07-07T05:52:05.955Z,1002.72
2017-07-07T05:53:05.989Z,1002.74
2017-07-07T05:54:05.928Z,1002.72
2017-07-07T05:55:05.907Z,1002.76
2017-07-07T05:56:05.892Z,1002.69
2017-07-07T05:57:05.875Z,1002.74
2017-07-07T05:58:05.860Z,1002.72
2017-07-07T05:59:05.845Z,1002.74
2017-07-07T06:00:05.828Z,1002.75
2017-07-07T06:01:05.864Z,1002.75
2017-07-07T06:02:05.800Z,1002.74
2017-07-07T06:03:05.783Z,1002.71
2017-07-07T06:04:05.767Z,1002.76
2017-07-07T06:05:05.752Z,1002.79
2017-07-07T06:06:05.737Z,1002.75
2017-07-07T06:07:05.723Z,1002.74
2017-07-07T06:08:05.706Z,1002.74
2017-07-07T06:09:05.691Z,1002.73
2017-07-07T06:10:05.677Z,1002.76
2017-07-07T06:11:05.661Z,1002.75
2017-07-07T06:12:05.646Z,1002.72
2017-07-07T06:13:05.631Z,1002.78
2017-07-07T06:14:05.617Z,1002.76
2017-07-07T06:15:05.601Z,1002.75
2017-07-07T06:16:05.586Z,1002.8
2017-07-07T06:17:05.571Z,1002.79
2017-07-07T06:18:05.558Z,1002.77
2017-07-07T06:19:05.541Z,1002.78
2017-07-07T06:20:05.526Z,1002.75
2017-07-07T06:21:05.511Z,1002.81
2017-07-07T06:22:05.495Z,1002.84
2017-07-07T06:23:05.482Z,1002.82
2017-07-07T06:24:05.684Z,1002.81
2017-07-07T06:25:05.698Z,1002.84
2017-07-07T06:26:05.555Z,1002.87
2017-07-07T06:27:05.758Z,1002.87
2017-07-07T06:28:05.407Z,1002.88
2017-07-07T06:29:05.391Z,1002.89
2017-07-07T06:30:05.377Z,1002.92
2017-07-07T06:31:05.362Z,1002.88
2017-07-07T06:32:05.347Z,1002.88
2017-07-07T06:33:05.334Z,1002.91
2017-07-07T06:34:05.444Z,1002.92
2017-07-07T06:35:05.305Z,1002.97
2017-07-07T06:36:05.293Z,1002.9
2017-07-07T06:37:05.278Z,1002.9
2017-07-07T06:38:05.264Z,1002.85
2017-07-07T06:39:05.251Z,1002.85
2017-07-07T06:40:05.288Z,1002.86
2017-07-07T06:41:05.499Z,1002.89
2017-07-07T06:42:05.492Z,1002.9
2017-07-07T06:43:05.198Z,1002.94
2017-07-07T06:44:05.185Z,1002.95
2017-07-07T06:45:05.172Z,1002.93
2017-07-07T06:46:05.159Z,1002.89
2017-07-07T06:47:05.147Z,1002.95
2017-07-07T06:48:05.134Z,1002.97
2017-07-07T06:49:05.122Z,1002.96
2017-07-07T06:50:05.109Z,1002.97
2017-07-07T06:51:05.098Z,1002.94
2017-07-07T06:52:05.084Z,1002.92
2017-07-07T06:53:05.073Z,1002.94
2017-07-07T06:54:05.061Z,1002.94
2017-07-07T06:55:05.048Z,1002.92
2017-07-07T06:56:05.438Z,1002.93
2017-07-07T06:57:05.025Z,1002.95
2017-07-07T06:58:05.106Z,1002.94
2017-07-07T06:59:05.001Z,1002.96
2017-07-07T07:00:05.136Z,1003
2017-07-07T07:01:04.980Z,1002.99
2017-07-07T07:02:05.094Z,1002.96
2017-07-07T07:03:05.028Z,1002.95
2017-07-07T07:04:04.944Z,1002.98
2017-07-07T07:05:04.933Z,1003
2017-07-07T07:06:04.921Z,1003.06
2017-07-07T07:07:05.016Z,1003.07
2017-07-07T07:08:05.008Z,1003.07
2017-07-07T07:09:05.242Z,1003.08
2017-07-07T07:10:04.878Z,1003.11
2017-07-07T07:11:04.866Z,1003.14
2017-07-07T07:12:04.856Z,1003.12
2017-07-07T07:13:04.845Z,1003.16
2017-07-07T07:14:04.834Z,1003.13
2017-07-07T07:15:04.824Z,1003.14
2017-07-07T07:16:04.815Z,1003.18
2017-07-07T07:17:04.801Z,1003.2
2017-07-07T07:18:04.791Z,1003.24
2017-07-07T07:19:04.787Z,1003.29
2017-07-07T07:20:04.770Z,1003.28
2017-07-07T07:21:04.759Z,1003.24
2017-07-07T07:22:04.748Z,1003.21
2017-07-07T07:23:04.738Z,1003.24
2017-07-07T07:24:04.727Z,1003.24
2017-07-07T07:25:04.717Z,1003.19
2017-07-07T07:26:04.706Z,1003.14
2017-07-07T07:27:04.697Z,1003.14
2017-07-07T07:28:04.685Z,1003.13
2017-07-07T07:29:04.675Z,1003.12
2017-07-07T07:30:04.665Z,1003.12
2017-07-07T07:31:04.655Z,1003.19
2017-07-07T07:32:04.646Z,1003.18
2017-07-07T07:33:04.635Z,1003.24
2017-07-07T07:34:04.625Z,1003.18
2017-07-07T07:35:04.615Z,1003.25
2017-07-07T07:36:04.605Z,1003.26
2017-07-07T07:37:04.596Z,1003.24
2017-07-07T07:38:04.586Z,1003.28
2017-07-07T07:39:04.576Z,1003.37
2017-07-07T07:40:04.567Z,1003.29
2017-07-07T07:41:04.557Z,1003.27
2017-07-07T07:42:04.549Z,1003.29
2017-07-07T07:43:04.568Z,1003.3
2017-07-07T07:44:04.687Z,1003.38
2017-07-07T07:45:04.633Z,1003.35
2017-07-07T07:46:04.614Z,1003.38
2017-07-07T07:47:04.641Z,1003.41
2017-07-07T07:48:04.555Z,1003.4
2017-07-07T07:49:04.485Z,1003.32
2017-07-07T07:50:04.475Z,1003.33
2017-07-07T07:51:04.466Z,1003.38
2017-07-07T07:52:04.456Z,1003.4
2017-07-07T07:53:04.449Z,1003.4
2017-07-07T07:54:04.439Z,1003.38
2017-07-07T07:55:04.429Z,1003.4
2017-07-07T07:56:04.421Z,1003.39
2017-07-07T07:57:04.413Z,1003.37
2017-07-07T07:58:04.403Z,1003.41
2017-07-07T07:59:04.395Z,1003.43
2017-07-07T08:00:04.545Z,1003.41
2017-07-07T08:01:04.378Z,1003.4
2017-07-07T08:02:04.401Z,1003.44
2017-07-07T08:03:04.362Z,1003.39
2017-07-07T08:04:04.355Z,1003.44
2017-07-07T08:05:04.345Z,1003.4
2017-07-07T08:06:04.337Z,1003.39
2017-07-07T08:07:04.340Z,1003.41
2017-07-07T08:08:04.321Z,1003.38
2017-07-07T08:09:04.318Z,1003.38
2017-07-07T08:10:04.306Z,1003.35
2017-07-07T08:11:04.388Z,1003.32
2017-07-07T08:12:04.292Z,1003.32
2017-07-07T08:13:04.284Z,1003.39
2017-07-07T08:14:04.277Z,1003.34
2017-07-07T08:15:04.271Z,1003.35
2017-07-07T08:16:04.267Z,1003.28
2017-07-07T08:17:04.256Z,1003.35
2017-07-07T08:18:04.248Z,1003.3
2017-07-07T08:19:04.240Z,1003.33
2017-07-07T08:20:04.235Z,1003.33
2017-07-07T08:21:04.228Z,1003.27
2017-07-07T08:22:04.221Z,1003.27
2017-07-07T08:23:04.216Z,1003.29
2017-07-07T08:24:04.206Z,1003.32
2017-07-07T08:25:04.200Z,1003.33
2017-07-07T08:26:04.193Z,1003.39
2017-07-07T08:27:04.186Z,1003.41
2017-07-07T08:28:04.180Z,1003.38
2017-07-07T08:29:04.174Z,1003.37
2017-07-07T08:30:04.167Z,1003.32
2017-07-07T08:31:04.161Z,1003.27
2017-07-07T08:32:04.155Z,1003.23
2017-07-07T08:33:04.149Z,1003.28
2017-07-07T08:34:04.142Z,1003.25
2017-07-07T08:35:04.136Z,1003.26
2017-07-07T08:36:04.130Z,1003.23
2017-07-07T08:37:04.126Z,1003.17
2017-07-07T08:38:04.118Z,1003.17
2017-07-07T08:39:04.114Z,1003.24
2017-07-07T08:40:04.108Z,1003.24
2017-07-07T08:41:04.102Z,1003.26
2017-07-07T08:42:04.095Z,1003.24
2017-07-07T08:43:04.091Z,1003.21
2017-07-07T08:44:04.085Z,1003.16
2017-07-07T08:45:04.081Z,1003.23
2017-07-07T08:46:04.075Z,1003.29
2017-07-07T08:47:04.070Z,1003.21
2017-07-07T08:48:04.065Z,1003.21
2017-07-07T08:49:04.060Z,1003.23
2017-07-07T08:50:04.055Z,1003.28
2017-07-07T08:51:04.049Z,1003.24
2017-07-07T08:52:04.044Z,1003.22
2017-07-07T08:53:04.038Z,1003.26
2017-07-07T08:54:04.034Z,1003.24
2017-07-07T08:55:04.029Z,1003.27
2017-07-07T08:56:04.023Z,1003.25
2017-07-07T08:57:04.019Z,1003.26
2017-07-07T08:58:04.014Z,1003.25
2017-07-07T08:59:04.246Z,1003.23
2017-07-07T09:00:04.446Z,1003.28
2017-07-07T09:01:04.100Z,1003.25
2017-07-07T09:02:03.994Z,1003.27
2017-07-07T09:03:03.989Z,1003.29
2017-07-07T09:04:03.985Z,1003.26
2017-07-07T09:05:03.980Z,1003.3
2017-07-07T09:06:03.976Z,1003.31
2017-07-07T09:07:03.972Z,1003.36
2017-07-07T09:08:03.967Z,1003.33
2017-07-07T09:09:03.964Z,1003.34
2017-07-07T09:10:03.994Z,1003.36
2017-07-07T09:11:03.954Z,1003.48
2017-07-07T09:12:03.950Z,1003.4
2017-07-07T09:13:03.946Z,1003.41
2017-07-07T09:14:03.948Z,1003.32
2017-07-07T09:15:03.938Z,1003.43
2017-07-07T09:16:03.934Z,1003.38
2017-07-07T09:17:04.000Z,1003.36
2017-07-07T09:18:03.926Z,1003.34
2017-07-07T09:19:03.923Z,1003.37
2017-07-07T09:20:03.919Z,1003.28
2017-07-07T09:21:03.916Z,1003.35
2017-07-07T09:22:03.912Z,1003.34
2017-07-07T09:23:03.908Z,1003.38
2017-07-07T09:24:03.905Z,1003.31
2017-07-07T09:25:03.901Z,1003.33
2017-07-07T09:26:03.899Z,1003.37
2017-07-07T09:27:03.945Z,1003.4
2017-07-07T09:28:03.891Z,1003.45
2017-07-07T09:29:03.888Z,1003.47
2017-07-07T09:30:03.885Z,1003.46
2017-07-07T09:31:03.883Z,1003.45
2017-07-07T09:32:03.879Z,1003.48
2017-07-07T09:33:03.876Z,1003.49
2017-07-07T09:34:03.875Z,1003.36
2017-07-07T09:35:03.871Z,1003.45
2017-07-07T09:36:03.869Z,1003.43
2017-07-07T09:37:03.865Z,1003.44
2017-07-07T09:38:03.861Z,1003.44
2017-07-07T09:39:03.858Z,1003.41
2017-07-07T09:40:03.854Z,1003.38
2017-07-07T09:41:03.851Z,1003.39
2017-07-07T09:42:03.847Z,1003.32
2017-07-07T09:43:03.843Z,1003.29
2017-07-07T09:44:03.840Z,1003.34
2017-07-07T09:45:03.838Z,1003.41
2017-07-07T09:46:03.834Z,1003.37
2017-07-07T09:47:03.831Z,1003.43
2017-07-07T09:48:03.827Z,1003.39
2017-07-07T09:49:03.823Z,1003.37
2017-07-07T09:50:03.820Z,1003.42
2017-07-07T09:51:03.819Z,1003.43
2017-07-07T09:52:03.816Z,1003.42
2017-07-07T09:53:03.812Z,1003.41
2017-07-07T09:54:03.806Z,1003.46
2017-07-07T09:55:03.807Z,1003.44
2017-07-07T09:56:03.800Z,1003.47
2017-07-07T09:57:03.796Z,1003.52
2017-07-07T09:58:03.791Z,1003.5
2017-07-07T09:59:03.787Z,1003.47
2017-07-07T10:00:03.783Z,1003.55
2017-07-07T10:01:03.779Z,1003.58
2017-07-07T10:02:03.778Z,1003.62
2017-07-07T10:03:03.770Z,1003.62
2017-07-07T10:04:03.767Z,1003.68
2017-07-07T10:05:03.763Z,1003.59
2017-07-07T10:06:03.759Z,1003.57
2017-07-07T10:07:03.755Z,1003.62
2017-07-07T10:08:03.753Z,1003.57
2017-07-07T10:09:03.748Z,1003.54
2017-07-07T10:10:03.746Z,1003.51
2017-07-07T10:11:03.749Z,1003.52
2017-07-07T10:12:03.740Z,1003.49
2017-07-07T10:13:03.736Z,1003.42
2017-07-07T10:14:03.733Z,1003.53
2017-07-07T10:15:03.730Z,1003.47
2017-07-07T10:16:03.726Z,1003.5
2017-07-07T10:17:03.723Z,1003.48
2017-07-07T10:18:03.721Z,1003.54
2017-07-07T10:19:03.956Z,1003.43
2017-07-07T10:20:03.714Z,1003.51
2017-07-07T10:21:03.712Z,1003.5
2017-07-07T10:22:03.708Z,1003.48
2017-07-07T10:23:03.706Z,1003.4
2017-07-07T10:24:03.875Z,1003.4
2017-07-07T10:25:03.698Z,1003.4
2017-07-07T10:26:03.696Z,1003.37
2017-07-07T10:27:03.691Z,1003.35
2017-07-07T10:28:03.688Z,1003.44
2017-07-07T10:29:03.684Z,1003.49
2017-07-07T10:30:03.681Z,1003.48
2017-07-07T10:31:03.677Z,1003.39
2017-07-07T10:32:03.673Z,1003.36
2017-07-07T10:33:03.671Z,1003.4
2017-07-07T10:34:03.665Z,1003.45
2017-07-07T10:35:03.662Z,1003.43
2017-07-07T10:36:03.659Z,1003.33
2017-07-07T10:37:03.655Z,1003.34
2017-07-07T10:38:03.651Z,1003.36
2017-07-07T10:39:03.647Z,1003.29
2017-07-07T10:40:03.644Z,1003.25
2017-07-07T10:41:03.640Z,1003.31
2017-07-07T10:42:03.637Z,1003.26
2017-07-07T10:43:03.634Z,1003.29
2017-07-07T10:44:03.630Z,1003.22
2017-07-07T10:45:03.626Z,1003.26
2017-07-07T10:46:03.622Z,1003.22
2017-07-07T10:47:03.619Z,1003.29
2017-07-07T10:48:03.616Z,1003.24
2017-07-07T10:49:03.612Z,1003.28
2017-07-07T10:50:03.610Z,1003.29
2017-07-07T10:51:04.407Z,1003.34
2017-07-07T10:52:03.602Z,1003.31
2017-07-07T10:53:03.597Z,1003.37
2017-07-07T10:54:03.594Z,1003.29
2017-07-07T10:55:03.591Z,1003.36
2017-07-07T10:56:03.586Z,1003.3
2017-07-07T10:57:03.583Z,1003.23
2017-07-07T10:58:03.579Z,1003.37
2017-07-07T10:59:03.576Z,1003.4
2017-07-07T11:00:03.571Z,1003.2
2017-07-07T11:01:03.568Z,1003.36
2017-07-07T11:02:03.564Z,1003.34
2017-07-07T11:03:03.561Z,1003.29
2017-07-07T11:04:03.556Z,1003.28
2017-07-07T11:05:03.552Z,1003.38
2017-07-07T11:06:03.548Z,1003.32
2017-07-07T11:07:03.543Z,1003.35
2017-07-07T11:08:03.540Z,1003.37
2017-07-07T11:09:03.536Z,1003.46
2017-07-07T11:10:03.532Z,1003.4
2017-07-07T11:11:03.528Z,1003.4
2017-07-07T11:12:03.524Z,1003.41
2017-07-07T11:13:03.520Z,1003.38
2017-07-07T11:14:03.517Z,1003.42
2017-07-07T11:15:03.512Z,1003.38
2017-07-07T11:16:03.508Z,1003.38
2017-07-07T11:17:03.505Z,1003.44
2017-07-07T11:18:03.500Z,1003.46
2017-07-07T11:19:03.496Z,1003.44
2017-07-07T11:20:03.492Z,1003.48
2017-07-07T11:21:03.488Z,1003.44
2017-07-07T11:22:03.484Z,1003.49
2017-07-07T11:23:03.479Z,1003.48
2017-07-07T11:24:03.476Z,1003.49
2017-07-07T11:25:03.473Z,1003.49
2017-07-07T11:26:03.467Z,1003.64
2017-07-07T11:27:03.463Z,1003.67
2017-07-07T11:28:03.460Z,1003.74
2017-07-07T11:29:03.453Z,1003.7
2017-07-07T11:30:03.449Z,1003.72
2017-07-07T11:31:03.445Z,1003.75
2017-07-07T11:32:03.440Z,1003.76
2017-07-07T11:33:03.434Z,1003.71
2017-07-07T11:34:03.429Z,1003.75
2017-07-07T11:35:03.423Z,1003.68
2017-07-07T11:36:03.418Z,1003.77
2017-07-07T11:37:03.411Z,1003.77
2017-07-07T11:38:03.405Z,1003.73
2017-07-07T11:39:03.399Z,1003.77
2017-07-07T11:40:03.392Z,1003.73
2017-07-07T11:41:03.386Z,1003.71
2017-07-07T11:42:03.379Z,1003.74
2017-07-07T11:43:03.373Z,1003.74
2017-07-07T11:44:03.366Z,1003.72
2017-07-07T11:45:03.359Z,1003.76
2017-07-07T11:46:03.353Z,1003.74
2017-07-07T11:47:03.345Z,1003.9
2017-07-07T11:48:03.337Z,1003.8
2017-07-07T11:49:03.331Z,1003.73
2017-07-07T11:50:03.324Z,1003.73
2017-07-07T11:51:03.315Z,1003.98
2017-07-07T11:52:03.309Z,1003.76
2017-07-07T11:53:03.305Z,1003.78
2017-07-07T11:54:03.296Z,1003.68
2017-07-07T11:55:03.290Z,1003.69
2017-07-07T11:56:03.285Z,1003.65
2017-07-07T11:57:03.279Z,1003.62
2017-07-07T11:58:03.277Z,1003.76
2017-07-07T11:59:03.271Z,1003.62
2017-07-07T12:00:03.516Z,1003.72
2017-07-07T12:01:03.263Z,1003.68
2017-07-07T12:02:03.258Z,1003.65
2017-07-07T12:03:03.254Z,1003.69
2017-07-07T12:04:03.251Z,1003.7
2017-07-07T12:05:03.248Z,1003.67
2017-07-07T12:06:03.520Z,1003.61
2017-07-07T12:07:03.240Z,1003.67
2017-07-07T12:08:03.238Z,1003.62